createdAt,value
2022-09-12T00:00:23.089Z,13.15
2022-09-12T00:02:55.771Z,13.13
2022-09-12T00:05:22.502Z,13.13
2022-09-12T00:07:49.651Z,13.14
2022-09-12T00:10:17.040Z,13.18
2022-09-12T00:12:43.522Z,13.19
2022-09-12T00:15:10.737Z,13.16
2022-09-12T00:17:39.026Z,13.11
2022-09-12T00:20:08.342Z,13.04
2022-09-12T00:22:35.804Z,13.02
2022-09-12T00:25:03.816Z,13.03
2022-09-12T00:27:30.351Z,12.98
2022-09-12T00:29:56.737Z,12.96
2022-09-12T00:32:23.442Z,12.92
2022-09-12T00:34:49.829Z,12.89
2022-09-12T00:37:16.275Z,12.89
2022-09-12T00:39:42.706Z,12.87
2022-09-12T00:42:11.741Z,12.83
2022-09-12T00:44:38.093Z,12.77
2022-09-12T00:47:10.630Z,12.74
2022-09-12T00:49:49.610Z,12.73
2022-09-12T00:52:33.709Z,12.76
2022-09-12T00:55:06.178Z,12.81
2022-09-12T00:57:38.184Z,12.79
2022-09-12T01:00:13.699Z,12.82
2022-09-12T01:02:41.108Z,12.84
2022-09-12T01:05:08.910Z,12.85
2022-09-12T01:07:39.996Z,12.84
2022-09-12T01:10:09.210Z,12.88
2022-09-12T01:12:39.424Z,12.90
2022-09-12T01:15:06.343Z,12.91
2022-09-12T01:17:52.753Z,12.91
2022-09-12T01:20:40.707Z,12.90
2022-09-12T01:23:19.139Z,12.85
2022-09-12T01:26:21.103Z,12.83
2022-09-12T01:28:53.483Z,12.83
2022-09-12T01:31:49.437Z,12.81
2022-09-12T01:34:30.633Z,12.77
2022-09-12T01:36:57.489Z,12.76
2022-09-12T01:39:55.214Z,12.74
2022-09-12T01:42:24.623Z,12.70
2022-09-12T01:45:07.499Z,12.71
2022-09-12T01:47:40.830Z,12.64
2022-09-12T01:50:09.163Z,12.64
2022-09-12T01:52:52.226Z,12.66
2022-09-12T01:55:24.951Z,12.64
2022-09-12T01:57:58.968Z,12.63
2022-09-12T02:00:26.140Z,12.65
2022-09-12T02:03:10.192Z,12.65
2022-09-12T02:05:42.058Z,12.60
2022-09-12T02:08:14.476Z,12.55
2022-09-12T02:10:47.673Z,12.49
2022-09-12T02:13:21.882Z,12.48
2022-09-12T02:15:54.407Z,12.41
2022-09-12T02:18:21.385Z,12.43
2022-09-12T02:20:50.220Z,12.43
2022-09-12T02:23:22.367Z,12.43
2022-09-12T02:25:54.642Z,12.42
2022-09-12T02:28:31.915Z,12.38
2022-09-12T02:31:01.058Z,12.36
2022-09-12T02:33:33.388Z,12.34
2022-09-12T02:36:23.892Z,12.33
2022-09-12T02:38:50.822Z,12.33
2022-09-12T02:41:20.429Z,12.32
2022-09-12T02:43:48.899Z,12.29
2022-09-12T02:46:22.685Z,12.33
2022-09-12T02:48:49.398Z,12.33
2022-09-12T02:51:20.315Z,12.36
2022-09-12T02:53:49.560Z,12.38
2022-09-12T02:56:24.823Z,12.40
2022-09-12T02:58:52.267Z,12.44
2022-09-12T03:01:49.311Z,12.46
2022-09-12T03:04:49.740Z,12.54
2022-09-12T03:07:54.863Z,12.54
2022-09-12T03:10:40.060Z,12.54
2022-09-12T03:13:39.066Z,12.56
2022-09-12T03:16:23.963Z,12.60
2022-09-12T03:19:09.080Z,12.60
2022-09-12T03:22:02.080Z,12.62
2022-09-12T03:24:41.695Z,12.62
2022-09-12T03:27:19.120Z,12.62
2022-09-12T03:29:47.967Z,12.64
2022-09-12T03:32:14.786Z,12.63
2022-09-12T03:34:41.254Z,12.65
2022-09-12T03:37:07.697Z,12.64
2022-09-12T03:39:34.143Z,12.66
2022-09-12T03:42:00.737Z,12.65
2022-09-12T03:44:27.260Z,12.62
2022-09-12T03:46:53.719Z,12.59
2022-09-12T03:49:20.161Z,12.61
2022-09-12T03:51:46.597Z,12.58
2022-09-12T03:54:13.349Z,12.61
2022-09-12T03:56:41.175Z,12.62
2022-09-12T03:59:07.719Z,12.62
2022-09-12T04:01:34.862Z,12.62
2022-09-12T04:04:01.777Z,12.62
2022-09-12T04:06:30.382Z,12.64
2022-09-12T04:08:57.076Z,12.65
2022-09-12T04:11:23.715Z,12.67
2022-09-12T04:13:50.172Z,12.73
2022-09-12T04:16:17.593Z,12.74
2022-09-12T04:18:44.433Z,12.74
2022-09-12T04:21:14.720Z,12.74
2022-09-12T04:23:41.240Z,12.74
2022-09-12T04:26:08.071Z,12.76
2022-09-12T04:28:36.356Z,12.74
2022-09-12T04:31:09.353Z,12.74
2022-09-12T04:33:36.464Z,12.76
2022-09-12T04:36:11.543Z,12.76
2022-09-12T04:38:38.682Z,12.76
2022-09-12T04:41:32.532Z,12.78
2022-09-12T04:44:03.088Z,12.74
2022-09-12T04:46:30.572Z,12.70
2022-09-12T04:48:57.307Z,12.71
2022-09-12T04:51:36.329Z,12.71
2022-09-12T04:54:08.476Z,12.69
2022-09-12T04:56:39.224Z,12.73
2022-09-12T04:59:06.204Z,12.75
2022-09-12T05:01:33.166Z,12.78
2022-09-12T05:04:00.015Z,12.75
2022-09-12T05:06:32.234Z,12.75
2022-09-12T05:09:00.541Z,12.75
2022-09-12T05:11:46.745Z,12.76
2022-09-12T05:14:16.585Z,12.77
2022-09-12T05:16:46.146Z,12.79
2022-09-12T05:19:15.654Z,12.79
2022-09-12T05:21:42.061Z,12.81
2022-09-12T05:24:11.377Z,12.86
2022-09-12T05:26:38.281Z,12.87
2022-09-12T05:29:07.003Z,12.95
2022-09-12T05:31:33.603Z,12.99
2022-09-12T05:34:00.128Z,13.05
2022-09-12T05:36:30.372Z,13.10
2022-09-12T05:38:57.553Z,13.11
2022-09-12T05:41:32.956Z,13.15
2022-09-12T05:44:02.066Z,13.21
2022-09-12T05:46:31.171Z,13.27
2022-09-12T05:49:01.956Z,13.38
2022-09-12T05:51:31.764Z,13.47
2022-09-12T05:54:00.813Z,13.56
2022-09-12T05:56:29.713Z,13.79
2022-09-12T05:59:01.979Z,14.03
2022-09-12T06:01:30.326Z,14.27
2022-09-12T06:04:00.809Z,14.51
2022-09-12T06:06:29.018Z,14.73
2022-09-12T06:09:00.801Z,14.90
2022-09-12T06:11:29.877Z,14.97
2022-09-12T06:13:58.163Z,15.06
2022-09-12T06:16:29.785Z,15.07
2022-09-12T06:19:07.486Z,15.10
2022-09-12T06:21:37.832Z,15.05
2022-09-12T06:24:04.450Z,15.29
2022-09-12T06:26:30.942Z,15.29
2022-09-12T06:28:59.231Z,15.45
2022-09-12T06:31:29.315Z,15.22
2022-09-12T06:33:57.344Z,15.12
2022-09-12T06:36:26.756Z,15.22
2022-09-12T06:39:13.928Z,15.33
2022-09-12T06:41:44.007Z,15.31
2022-09-12T06:44:14.956Z,15.45
2022-09-12T06:46:41.651Z,15.53
2022-09-12T06:49:08.316Z,15.58
2022-09-12T06:51:37.938Z,15.57
2022-09-12T06:54:05.438Z,15.56
2022-09-12T06:56:31.992Z,15.51
2022-09-12T06:58:59.365Z,15.81
2022-09-12T07:01:27.887Z,15.92
2022-09-12T07:03:57.063Z,15.95
2022-09-12T07:06:32.033Z,16.07
2022-09-12T07:08:59.996Z,16.15
2022-09-12T07:11:29.037Z,16.40
2022-09-12T07:13:56.547Z,16.65
2022-09-12T07:16:23.814Z,16.93
2022-09-12T07:18:52.144Z,17.15
2022-09-12T07:21:19.326Z,17.24
2022-09-12T07:23:46.164Z,17.36
2022-09-12T07:26:14.499Z,17.72
2022-09-12T07:28:41.532Z,18.03
2022-09-12T07:31:09.285Z,18.21
2022-09-12T07:33:36.020Z,18.28
2022-09-12T07:36:08.666Z,18.60
2022-09-12T07:38:35.227Z,18.63
2022-09-12T07:41:01.817Z,18.65
2022-09-12T07:43:28.359Z,18.38
2022-09-12T07:45:58.331Z,18.14
2022-09-12T07:48:24.950Z,18.16
2022-09-12T07:51:02.532Z,18.30
2022-09-12T07:53:43.260Z,18.24
2022-09-12T07:56:11.107Z,18.28
2022-09-12T07:58:40.321Z,18.56
2022-09-12T08:01:14.778Z,18.60
2022-09-12T08:03:42.594Z,18.65
2022-09-12T08:06:11.993Z,18.47
2022-09-12T08:08:38.768Z,18.43
2022-09-12T08:11:08.131Z,18.60
2022-09-12T08:13:36.677Z,18.49
2022-09-12T08:16:06.078Z,18.85
2022-09-12T08:18:34.266Z,19.16
2022-09-12T08:21:05.766Z,19.49
2022-09-12T08:23:32.560Z,19.68
2022-09-12T08:26:05.317Z,20.05
2022-09-12T08:28:34.991Z,20.53
2022-09-12T08:31:09.310Z,20.81
2022-09-12T08:33:36.002Z,21.60
2022-09-12T08:36:17.291Z,22.44
2022-09-12T08:38:46.612Z,22.35
2022-09-12T08:41:19.345Z,22.85
2022-09-12T08:44:08.223Z,23.60
2022-09-12T08:47:06.888Z,23.81
2022-09-12T08:49:48.365Z,24.26
2022-09-12T08:52:22.155Z,24.29
2022-09-12T08:54:50.027Z,23.90
2022-09-12T08:57:16.475Z,24.07
2022-09-12T08:59:44.903Z,24.64
2022-09-12T09:02:23.800Z,23.94
2022-09-12T09:04:53.332Z,24.04
2022-09-12T09:07:38.300Z,24.43
2022-09-12T09:10:34.259Z,23.66
2022-09-12T09:13:39.084Z,24.35
2022-09-12T09:16:30.560Z,23.94
2022-09-12T09:19:04.382Z,24.50
2022-09-12T09:21:54.727Z,25.06
2022-09-12T09:24:53.169Z,25.85
2022-09-12T09:27:39.876Z,26.25
2022-09-12T09:30:14.331Z,26.43
2022-09-12T09:32:41.582Z,26.93
2022-09-12T09:35:16.557Z,27.27
2022-09-12T09:37:51.672Z,27.81
2022-09-12T09:40:32.898Z,27.58
2022-09-12T09:43:28.926Z,26.25
2022-09-12T09:45:57.797Z,26.13
2022-09-12T09:48:28.947Z,26.42
2022-09-12T09:51:00.278Z,26.50
2022-09-12T09:53:33.726Z,26.52
2022-09-12T09:56:03.686Z,26.33
2022-09-12T09:58:35.187Z,26.55
2022-09-12T10:01:12.517Z,25.83
2022-09-12T10:03:40.808Z,26.71
2022-09-12T10:06:20.919Z,26.80
2022-09-12T10:08:49.013Z,26.74
2022-09-12T10:11:15.359Z,27.09
2022-09-12T10:13:56.878Z,27.45
2022-09-12T10:16:27.753Z,27.83
2022-09-12T10:18:56.815Z,28.24
2022-09-12T10:21:38.623Z,28.37
2022-09-12T10:24:18.336Z,28.44
2022-09-12T10:26:56.576Z,28.48
2022-09-12T10:29:32.241Z,28.84
2022-09-12T10:32:03.257Z,28.29
2022-09-12T10:34:34.387Z,28.07
2022-09-12T10:37:07.308Z,28.15
2022-09-12T10:39:36.246Z,28.23
2022-09-12T10:42:04.620Z,28.39
2022-09-12T10:44:35.427Z,28.93
2022-09-12T10:47:24.241Z,27.48
2022-09-12T10:49:50.981Z,27.91
2022-09-12T10:52:27.327Z,27.62
2022-09-12T10:54:54.381Z,28.03
2022-09-12T10:57:57.090Z,28.30
2022-09-12T11:00:27.955Z,28.17
2022-09-12T11:02:59.111Z,27.77
2022-09-12T11:05:44.272Z,27.30
2022-09-12T11:08:16.507Z,27.19
2022-09-12T11:10:59.763Z,27.37
2022-09-12T11:14:03.359Z,26.64
2022-09-12T11:16:42.664Z,26.70
2022-09-12T11:19:21.588Z,27.16
2022-09-12T11:21:52.668Z,26.82
2022-09-12T11:24:40.792Z,27.22
2022-09-12T11:27:26.721Z,27.67
2022-09-12T11:29:59.285Z,27.03
2022-09-12T11:32:35.565Z,26.74
2022-09-12T11:35:18.015Z,26.90
2022-09-12T11:38:07.255Z,26.64
2022-09-12T11:40:38.837Z,26.46
2022-09-12T11:43:27.269Z,26.41
2022-09-12T11:45:54.092Z,26.25
2022-09-12T11:48:42.087Z,26.57
2022-09-12T11:51:18.786Z,26.65
2022-09-12T11:53:53.821Z,26.94
2022-09-12T11:56:20.245Z,26.80
2022-09-12T11:58:54.750Z,26.68
2022-09-12T12:01:27.481Z,26.57
2022-09-12T12:03:55.446Z,26.25
2022-09-12T12:06:26.914Z,26.69
2022-09-12T12:08:54.075Z,26.40
2022-09-12T12:11:34.328Z,26.83
2022-09-12T12:14:04.601Z,26.94
2022-09-12T12:16:34.639Z,26.34
2022-09-12T12:19:10.464Z,26.56
2022-09-12T12:21:49.591Z,27.15
2022-09-12T12:24:19.057Z,27.25
2022-09-12T12:27:02.109Z,27.32
2022-09-12T12:29:33.866Z,26.56
2022-09-12T12:32:02.823Z,26.19
2022-09-12T12:34:46.521Z,26.03
2022-09-12T12:37:18.916Z,26.26
2022-09-12T12:39:48.446Z,26.38
2022-09-12T12:42:36.447Z,26.58
2022-09-12T12:45:08.962Z,26.79
2022-09-12T12:47:38.359Z,26.15
2022-09-12T12:50:10.932Z,26.36
2022-09-12T12:52:54.201Z,26.74
2022-09-12T12:55:45.511Z,27.13
2022-09-12T12:58:36.340Z,27.37
2022-09-12T13:01:16.836Z,26.94
2022-09-12T13:03:54.401Z,26.70
2022-09-12T13:06:29.588Z,26.17
2022-09-12T13:09:19.692Z,25.98
2022-09-12T13:11:47.078Z,25.84
2022-09-12T13:14:46.881Z,26.12
2022-09-12T13:17:25.990Z,26.54
2022-09-12T13:20:24.116Z,26.16
2022-09-12T13:22:51.770Z,26.51
2022-09-12T13:25:19.819Z,26.59
2022-09-12T13:28:04.500Z,26.32
2022-09-12T13:30:34.717Z,26.60
2022-09-12T13:33:27.363Z,26.88
2022-09-12T13:36:24.065Z,27.35
2022-09-12T13:39:15.441Z,27.49
2022-09-12T13:41:51.095Z,27.13
2022-09-12T13:44:21.677Z,26.85
2022-09-12T13:46:48.970Z,26.88
2022-09-12T13:49:20.722Z,27.23
2022-09-12T13:52:01.729Z,27.30
2022-09-12T13:54:29.022Z,27.23
2022-09-12T13:56:55.555Z,27.50
2022-09-12T13:59:21.956Z,27.25
2022-09-12T14:01:49.144Z,27.39
2022-09-12T14:04:43.689Z,27.16
2022-09-12T14:07:20.930Z,27.33
2022-09-12T14:09:55.857Z,27.59
2022-09-12T14:12:28.489Z,27.32
2022-09-12T14:14:55.054Z,27.42
2022-09-12T14:17:31.635Z,26.81
2022-09-12T14:20:05.416Z,26.88
2022-09-12T14:22:34.123Z,26.86
2022-09-12T14:25:01.951Z,26.78
2022-09-12T14:27:50.703Z,26.87
2022-09-12T14:30:32.543Z,26.57
2022-09-12T14:33:11.056Z,26.56
2022-09-12T14:35:43.450Z,26.70
2022-09-12T14:38:34.468Z,26.62
2022-09-12T14:41:06.248Z,26.68
2022-09-12T14:43:36.076Z,26.95
2022-09-12T14:46:05.169Z,26.93
2022-09-12T14:48:46.764Z,26.87
2022-09-12T14:51:21.305Z,26.74
2022-09-12T14:53:49.441Z,27.03
2022-09-12T14:56:16.028Z,27.39
2022-09-12T14:58:43.111Z,26.64
2022-09-12T15:01:12.253Z,26.62
2022-09-12T15:03:43.939Z,26.67
2022-09-12T15:06:30.807Z,26.84
2022-09-12T15:09:02.389Z,26.62
2022-09-12T15:11:29.256Z,26.30
2022-09-12T15:13:55.663Z,25.97
2022-09-12T15:16:22.215Z,25.77
2022-09-12T15:18:48.755Z,25.97
2022-09-12T15:21:20.448Z,25.87
2022-09-12T15:23:48.691Z,26.00
2022-09-12T15:26:21.983Z,25.94
2022-09-12T15:28:49.181Z,25.87
2022-09-12T15:31:32.883Z,26.08
2022-09-12T15:34:01.559Z,26.02
2022-09-12T15:36:28.987Z,26.08
2022-09-12T15:38:55.981Z,25.87
2022-09-12T15:41:31.173Z,26.18
2022-09-12T15:43:58.110Z,26.10
2022-09-12T15:46:24.893Z,26.17
2022-09-12T15:48:51.432Z,26.07
2022-09-12T15:51:20.585Z,25.88
2022-09-12T15:53:48.814Z,25.92
2022-09-12T15:56:21.204Z,25.64
2022-09-12T15:58:58.083Z,25.52
2022-09-12T16:01:25.756Z,25.70
2022-09-12T16:03:52.296Z,25.67
2022-09-12T16:06:18.740Z,25.37
2022-09-12T16:08:45.344Z,25.50
2022-09-12T16:11:26.361Z,25.46
2022-09-12T16:13:54.123Z,25.37
2022-09-12T16:16:20.863Z,25.28
2022-09-12T16:18:47.480Z,25.25
2022-09-12T16:21:15.565Z,25.30
2022-09-12T16:23:43.775Z,25.40
2022-09-12T16:26:10.391Z,25.29
2022-09-12T16:28:37.089Z,25.35
2022-09-12T16:31:06.611Z,25.51
2022-09-12T16:33:33.499Z,25.51
2022-09-12T16:36:03.366Z,25.40
2022-09-12T16:38:30.287Z,25.29
2022-09-12T16:41:00.931Z,25.35
2022-09-12T16:43:27.368Z,25.26
2022-09-12T16:46:05.790Z,25.20
2022-09-12T16:48:36.444Z,25.12
2022-09-12T16:51:06.817Z,25.05
2022-09-12T16:53:35.082Z,25.05
2022-09-12T16:56:01.651Z,24.93
2022-09-12T16:58:28.204Z,24.85
2022-09-12T17:01:02.800Z,24.80
2022-09-12T17:03:29.963Z,24.74
2022-09-12T17:06:08.169Z,24.74
2022-09-12T17:08:37.263Z,24.81
2022-09-12T17:11:11.481Z,24.70
2022-09-12T17:14:02.715Z,24.71
2022-09-12T17:16:26.453Z,24.61
2022-09-12T17:18:53.667Z,24.48
2022-09-12T17:21:21.172Z,24.43
2022-09-12T17:23:48.379Z,24.36
2022-09-12T17:26:15.068Z,24.41
2022-09-12T17:28:42.120Z,24.40
2022-09-12T17:31:11.019Z,24.35
2022-09-12T17:33:38.060Z,24.33
2022-09-12T17:36:07.697Z,24.33
2022-09-12T17:38:36.030Z,24.27
2022-09-12T17:41:11.362Z,24.26
2022-09-12T17:43:38.090Z,24.22
2022-09-12T17:46:05.085Z,24.13
2022-09-12T17:48:32.398Z,24.07
2022-09-12T17:50:59.287Z,24.00
2022-09-12T17:53:25.830Z,23.86
2022-09-12T17:55:54.362Z,23.77
2022-09-12T17:58:21.083Z,23.65
2022-09-12T18:01:06.009Z,23.52
2022-09-12T18:03:35.034Z,23.30
2022-09-12T18:06:01.505Z,23.14
2022-09-12T18:08:27.939Z,22.98
2022-09-12T18:10:54.411Z,22.80
2022-09-12T18:13:20.881Z,22.67
2022-09-12T18:15:47.335Z,22.61
2022-09-12T18:18:13.813Z,22.53
2022-09-12T18:20:49.910Z,22.44
2022-09-12T18:23:16.364Z,22.34
2022-09-12T18:25:42.802Z,22.23
2022-09-12T18:28:09.369Z,22.06
2022-09-12T18:30:35.832Z,21.88
2022-09-12T18:33:02.335Z,21.77
2022-09-12T18:35:28.742Z,21.76
2022-09-12T18:37:55.693Z,21.69
2022-09-12T18:40:22.192Z,21.59
2022-09-12T18:42:49.072Z,21.44
2022-09-12T18:45:15.593Z,21.30
2022-09-12T18:47:42.020Z,21.19
2022-09-12T18:50:09.070Z,21.09
2022-09-12T18:52:35.571Z,21.04
2022-09-12T18:55:02.026Z,20.98
2022-09-12T18:57:30.516Z,20.89
2022-09-12T18:59:59.581Z,20.77
2022-09-12T19:02:28.486Z,20.73
2022-09-12T19:04:54.919Z,20.61
2022-09-12T19:07:21.441Z,20.57
2022-09-12T19:09:48.082Z,20.59
2022-09-12T19:12:14.506Z,20.60
2022-09-12T19:14:41.093Z,20.62
2022-09-12T19:17:07.987Z,20.63
2022-09-12T19:19:37.656Z,20.57
2022-09-12T19:22:06.892Z,20.47
2022-09-12T19:24:33.800Z,20.43
2022-09-12T19:27:00.248Z,20.38
2022-09-12T19:29:26.686Z,20.31
2022-09-12T19:31:53.152Z,20.18
2022-09-12T19:34:19.589Z,20.04
2022-09-12T19:36:47.260Z,19.92
2022-09-12T19:39:16.065Z,19.85
2022-09-12T19:41:43.808Z,19.85
2022-09-12T19:44:11.405Z,19.91
2022-09-12T19:46:38.177Z,19.93
2022-09-12T19:49:04.710Z,19.91
2022-09-12T19:51:34.130Z,19.90
2022-09-12T19:54:00.699Z,19.84
2022-09-12T19:56:27.307Z,19.75
2022-09-12T19:58:56.612Z,19.64
2022-09-12T20:01:30.143Z,19.55
2022-09-12T20:03:58.134Z,19.52
2022-09-12T20:06:25.233Z,19.48
2022-09-12T20:08:51.778Z,19.43
2022-09-12T20:11:19.705Z,19.36
2022-09-12T20:13:46.875Z,19.35
2022-09-12T20:16:22.007Z,19.26
2022-09-12T20:18:54.894Z,19.19
2022-09-12T20:21:31.249Z,19.15
2022-09-12T20:24:15.790Z,19.16
2022-09-12T20:26:42.331Z,19.17
2022-09-12T20:29:09.598Z,19.11
2022-09-12T20:31:38.540Z,19.09
2022-09-12T20:34:05.798Z,19.09
2022-09-12T20:36:32.457Z,19.09
2022-09-12T20:39:01.211Z,19.10
2022-09-12T20:41:30.296Z,19.08
2022-09-12T20:43:57.695Z,19.00
2022-09-12T20:46:26.219Z,19.00
2022-09-12T20:48:53.276Z,19.01
2022-09-12T20:51:21.101Z,18.97
2022-09-12T20:53:48.261Z,18.92
2022-09-12T20:56:15.026Z,18.96
2022-09-12T20:58:44.091Z,18.97
2022-09-12T21:01:13.516Z,18.96
2022-09-12T21:03:44.092Z,18.92
2022-09-12T21:06:12.592Z,18.90
2022-09-12T21:08:39.473Z,18.85
2022-09-12T21:11:06.509Z,18.81
2022-09-12T21:13:33.053Z,18.76
2022-09-12T21:16:05.454Z,18.71
2022-09-12T21:18:33.150Z,18.69
2022-09-12T21:20:59.954Z,18.63
2022-09-12T21:23:27.732Z,18.59
2022-09-12T21:25:54.638Z,18.57
2022-09-12T21:28:21.483Z,18.47
2022-09-12T21:30:49.553Z,18.41
2022-09-12T21:33:16.358Z,18.36
2022-09-12T21:35:42.801Z,18.33
2022-09-12T21:38:09.324Z,18.27
2022-09-12T21:40:35.777Z,18.19
2022-09-12T21:43:02.425Z,18.09
2022-09-12T21:45:29.195Z,18.05
2022-09-12T21:47:55.657Z,17.99
2022-09-12T21:50:22.070Z,17.97
2022-09-12T21:52:48.477Z,17.94
2022-09-12T21:55:15.036Z,17.88
2022-09-12T21:57:41.872Z,17.88
2022-09-12T22:00:12.923Z,17.80
2022-09-12T22:02:39.467Z,17.84
2022-09-12T22:05:14.684Z,17.79
2022-09-12T22:07:41.157Z,17.70
2022-09-12T22:10:08.063Z,17.67
2022-09-12T22:12:34.570Z,17.60
2022-09-12T22:15:12.787Z,17.54
2022-09-12T22:17:47.369Z,17.50
2022-09-12T22:20:13.766Z,17.44
2022-09-12T22:22:58.719Z,17.39
2022-09-12T22:25:25.878Z,17.37
2022-09-12T22:27:52.778Z,17.40
2022-09-12T22:30:20.879Z,17.40
2022-09-12T22:32:49.685Z,17.40
2022-09-12T22:35:17.201Z,17.43
2022-09-12T22:37:44.197Z,17.45
2022-09-12T22:40:11.912Z,17.47
2022-09-12T22:42:38.665Z,17.51
2022-09-12T22:45:06.125Z,17.58
2022-09-12T22:47:33.072Z,17.65
2022-09-12T22:49:59.705Z,17.73
2022-09-12T22:52:26.425Z,17.78
2022-09-12T22:54:53.471Z,17.85
2022-09-12T22:57:19.986Z,17.90
2022-09-12T22:59:46.589Z,17.95
2022-09-12T23:02:13.136Z,17.99
2022-09-12T23:04:39.971Z,18.00
2022-09-12T23:07:06.623Z,18.00
2022-09-12T23:09:35.389Z,17.99
2022-09-12T23:12:02.458Z,18.02
2022-09-12T23:14:28.857Z,18.00
2022-09-12T23:16:55.404Z,18.02
2022-09-12T23:19:21.857Z,18.02
2022-09-12T23:21:48.328Z,18.03
2022-09-12T23:24:14.827Z,18.02
2022-09-12T23:26:41.245Z,18.06
2022-09-12T23:29:08.801Z,18.06
2022-09-12T23:31:35.353Z,18.09
2022-09-12T23:34:05.855Z,18.09
2022-09-12T23:36:32.759Z,18.05
2022-09-12T23:38:59.304Z,18.05
2022-09-12T23:41:25.774Z,18.03
2022-09-12T23:43:52.267Z,18.03
2022-09-12T23:46:22.373Z,17.99
2022-09-12T23:48:49.358Z,17.98
2022-09-12T23:51:16.438Z,17.94
2022-09-12T23:53:43.011Z,17.93
2022-09-12T23:56:09.621Z,17.89
2022-09-12T23:58:36.260Z,17.90
